METAR Data
IDs: Format: Raw Decoded Include TAF

Data at: 0131 UTC 19 Nov 2018

PAGS 190056Z AUTO 00000KT 10SM OVC045 06/06 A2995 RMK AO2 RAB36E50 SLP142 P0000 T00610061
PAGS 190047Z AUTO 34004KT 10SM -RA SCT025 OVC047 06/06 A2995 RMK AO2 RAB36 P0000
PAGS 190015Z AUTO 34003KT 9SM BKN025 BKN030 OVC037 06/06 A2996 RMK AO2
PAGS 182356Z AUTO 00000KT 10SM FEW026 OVC037 06/06 A2996 RMK AO2 RAE31 SLP145 P0001 60014 T00610061 10061 20044 58001
PAGS 182337Z AUTO 00000KT 6SM BR FEW024 BKN031 OVC042 06/06 A2996 RMK AO2 RAE31 P0001
PAGS 182329Z AUTO 00000KT 7SM -RA BKN026 BKN033 OVC046 06/06 A2996 RMK AO2 P0001
PAGS 182316Z AUTO 34004KT 4SM -RA BR BKN030 OVC036 06/06 A2996 RMK AO2 P0001
PAGS 182256Z AUTO 33004KT 2 1/2SM -RA BR FEW009 OVC033 06/06 A2997 RMK AO2 RAB08E22B41 SLP148 P0000 T00610056
PAGS 182247Z AUTO 34004KT 4SM -RA BR FEW009 OVC033 06/06 A2997 RMK AO2 RAB08E22B41 P0000
PAGS 182156Z AUTO 33005KT 10SM FEW021 BKN030 OVC035 06/06 A2997 RMK AO2 SLP148 T00560056
PAGS 182056Z AUTO 34003KT 10SM SCT005 OVC037 05/05 A2996 RMK AO2 RAE38 SLP147 P0001 60013 T00500050 50000
PAGS 182038Z AUTO 34004KT 10SM SCT008 OVC041 05/05 A2996 RMK AO2 RAE38 P0001
PAGS 181956Z AUTO 33004KT 10SM -RA OVC008 05/05 A2997 RMK AO2 SLP149 P0006 T00500050
PAGS 181936Z AUTO 33005KT 8SM -RA OVC008 05/05 A2996 RMK AO2 P0005
PAGS 181919Z AUTO 33003KT 6SM -RA BR BKN010 OVC014 05/04 A2996 RMK AO2 P0003
PAGS 181856Z AUTO 33003KT 2SM -RA BR OVC012 05/04 A2996 RMK AO2 SLP146 P0006 T00500044
PAGS 181819Z AUTO 33005KT 4SM -RA BR BKN010 OVC016 04/04 A2996 RMK AO2 P0003
PAGS 181756Z AUTO 33004KT 2SM -RA BR BKN010 OVC015 04/04 A2996 RMK AO2 SLP147 P0004 60018 T00440044 10044 20044 55005
PAGS 181746Z AUTO 35004KT 2 1/2SM -RA BR OVC010 04/04 A2996 RMK AO2 P0004
PAGS 181734Z AUTO 33004KT 3SM -RA BR OVC010 04/04 A2996 RMK AO2 CIG 010V013 P0003
PAGS 181720Z AUTO 32004KT 1 3/4SM -RA BR OVC012 04/04 A2996 RMK AO2 P0001
PAGS 181656Z AUTO 33006KT 6SM -RA BR OVC012 04/04 A2996 RMK AO2 SLP145 P0007 T00440044
PAGS 181556Z AUTO 32007KT 7SM -RA OVC012 04/04 A2996 RMK AO2 SLP147 P0006 T00440044
PAGS 181512Z AUTO 33006KT 4SM -RA BR BKN010 OVC017 04/04 A2997 RMK AO2 P0001
PAGS 181456Z AUTO 33005KT 4SM -RA BR BKN008 OVC025 04/04 A2998 RMK AO2 RAB24 CIG 007V012 SLP152 P0001 60001 T00440044 58010
PAGS 181442Z AUTO 34005KT 2 1/2SM -RA BR BKN008 BKN016 OVC025 04/04 A2998 RMK AO2 RAB24 CIG 007V011 P0000
PAGS 181439Z AUTO 34005KT 3SM -RA BR SCT008 BKN012 OVC026 04/04 A2998 RMK AO2 RAB24 P0000
PAGS 181429Z AUTO 33003KT 7SM -RA FEW005 BKN016 OVC026 04/04 A2998 RMK AO2 RAB24 P0000
PAGS 181421Z AUTO 00000KT 9SM SCT005 BKN011 OVC024 04/04 A2999 RMK AO2
PAGS 181356Z AUTO 33006KT 7SM OVC005 04/04 A2999 RMK AO2 SLP156 T00440044
PAGS 181317Z AUTO 31005KT 3SM BR OVC005 04/04 A3000 RMK AO2
PAGS 181256Z AUTO 33005KT 2 1/2SM BR OVC003 04/04 A3000 RMK AO2 SLP159 T00440044
PAGS 181238Z AUTO 33006KT 4SM BR OVC003 04/04 A3000 RMK AO2
PAGS 181231Z AUTO 33005KT 2 1/2SM BR OVC003 04/04 A3000 RMK AO2
PAGS 181220Z AUTO 33007KT 1 3/4SM BR OVC003 04/04 A3000 RMK AO2
PAGS 181202Z AUTO 32005KT 2SM BR OVC003 04/04 A3001 RMK AO2
PAGS 181151Z AUTO 33006KT 1 3/4SM BR OVC003 04/04 A3001 RMK AO2 SLP162 60001 70056 T00440039 10061 20028 50000
PAGS 181150Z AUTO 33005KT 1 3/4SM BR OVC003 04/04 A3001 RMK AO2
PAGS 181127Z AUTO 34006KT 5SM BR OVC003 04/04 A3001 RMK AO2
PAGS 181056Z AUTO 33003KT 10SM OVC005 04/04 A3001 RMK AO2 SLP164 P0001 T00390039
PAGS 180956Z AUTO 33004KT 10SM OVC007 03/03 A3002 RMK AO2 SLP165 T00330033
PAGS 180923Z AUTO 33003KT 10SM BKN009 BKN033 03/03 A3001 RMK AO2
PAGS 180856Z AUTO 32004KT 10SM SCT033 04/03 A3001 RMK AO2 SLP162 60000 T00390033 400830006 53012
PAGS 180756Z AUTO 34005KT 10SM SCT040 04/04 A2999 RMK AO2 RAE15 SLP156 P0000 T00390039
PAGS 180736Z AUTO 33005KT 10SM SCT010 SCT028 BKN040 04/04 A2999 RMK AO2 RAE15 P0000
PAGS 180656Z AUTO 33004KT 5SM -RA BR BKN012 OVC028 05/05 A2999 RMK AO2 RAB42 SLP156 P0000 T00500050
PAGS 180621Z AUTO 32006KT 10SM FEW002 BKN012 OVC026 06/05 A2998 RMK AO2
PAGS 180613Z AUTO 32004KT 10SM FEW002 BKN022 OVC028 06/06 A2998 RMK AO2
PAGS 180556Z AUTO 32007KT 10SM BKN022 OVC028 06/06 A2997 RMK AO2 SLP150 60000 T00610056 10078 20061 51010
PAGS 180456Z AUTO 00000KT 8SM OVC016 07/07 A2996 RMK AO2 SLP146 T00720067
PAGS 180418Z AUTO 08003KT 10SM OVC016 07/07 A2996 RMK AO2
PAGS 180356Z AUTO 00000KT 10SM OVC012 07/07 A2996 RMK AO2 RAE27 SLP146 P0000 T00720067
PAGS 180328Z AUTO 10004KT 10SM OVC012 07/07 A2995 RMK AO2 RAE27 P0000
PAGS 180210Z AUTO 11005KT 10SM BKN013 BKN018 OVC025 08/07 A2994 RMK AO2
PAGS 180156Z AUTO 12007KT 10SM SCT017 BKN025 OVC033 08/07 A2994 RMK AO2 RAE0058 SLP138 P0000 T00780067
PAGS 180056Z AUTO 11006KT 10SM -RA SCT015 BKN023 OVC065 08/07 A2993 RMK AO2 RAE07B28 SLP134 P0000 T00780067
PAGS 172356Z AUTO 12008KT 10SM -RA BKN017 OVC029 08/07 A2992 RMK AO2 RAB47 SLP131 P0000 60013 T00780067 10083 20072 53006
PAGS 172256Z AUTO 12009KT 10SM FEW019 OVC023 08/07 A2991 RMK AO2 RAB2157E47 SLP127 P0000 T00780067
PAGS 172156Z AUTO 14012KT 10SM FEW020 OVC028 08/06 A2990 RMK AO2 RAE06 SLP125 P0000 T00780061
PAGS 172147Z AUTO 13014G21KT 10SM OVC030 08/06 A2990 RMK AO2 RAE06 P0000
PAGS 172115Z AUTO 13017G21KT 10SM OVC028 08/06 A2990 RMK AO2 RAE06 P0000
PAGS 172056Z AUTO 14017G24KT 9SM -RA BKN030 OVC047 08/06 A2990 RMK AO2 PK WND 14028/2025 SLP125 P0000 60013 T00780061 56015
PAGS 171956Z AUTO 14021G27KT 9SM -RA OVC036 08/06 A2991 RMK AO2 PK WND 14027/1956 SLP128 P0003 T00780056
PAGS 171856Z AUTO 14016G25KT 9SM -RA OVC040 07/06 A2993 RMK AO2 PK WND 14026/1842 SLP136 P0010 T00720056
PAGS 171756Z AUTO 14017G23KT 6SM RA BR OVC038 07/06 A2994 RMK AO2 PK WND 13031/1703 SLP140 P0012 60042 T00720056 10072 20011 55010
PAGS 171656Z AUTO 14020G27KT 7SM -RA FEW042 OVC049 07/05 A2994 RMK AO2 PK WND 13030/1620 SLP138 P0015 T00670050
PAGS 171608Z AUTO 14018G28KT 8SM RA SCT028 SCT035 OVC055 07/05 A2996 RMK AO2 PK WND 13028/1603 P0003
PAGS 171556Z AUTO 14017G24KT 9SM RA BKN028 OVC035 07/05 A2996 RMK AO2 PK WND 13027/1503 RAB14 SLP147 P0009 T00670050
PAGS 171536Z AUTO 16013G22KT 9SM RA BKN028 OVC037 07/04 A2997 RMK AO2 PK WND 13027/1503 RAB14 P0004
PAGS 171456Z AUTO 14018G27KT 10SM OVC031 06/04 A2997 RMK AO2 PK WND 14027/1449 WSHFT 1424 SLP151 60006 T00610039 56047
PAGS 171356Z AUTO 00000KT 10SM OVC027 01/01 A3002 RMK AO2 RAE51 SLP165 P0003 T00110011 FZRANO